Time;durP1;ratioP1;P1;durP2;ratioP2;P2;SDS_P1;SDS_P2;PMS_P1;PMS_P2;Temp;Humidity;BMP_temperature;BMP_pressure;BME280_temperature;BME280_humidity;BME280_pressure;Samples;Min_cycle;Max_cycle;Signal;HPM_P1;HPM_P2
2024/02/12 00:02:40;;;;;;;2.53;1.93;;;;;;;;;;4895100;29;20190;-85
2024/02/12 00:05:46;;;;;;;3.80;1.60;;;;;;;;;;4907895;29;20190;-84
2024/02/12 00:08:51;;;;;;;2.03;1.60;;;;;;;;;;4907017;29;20217;-85
2024/02/12 00:11:56;;;;;;;1.70;1.53;;;;;;;;;;4905857;29;20186;-85
2024/02/12 00:15:00;;;;;;;2.43;1.50;;;;;;;;;;4908476;29;20189;-85
2024/02/12 00:18:05;;;;;;;5.07;1.40;;;;;;;;;;4907966;29;20229;-86
2024/02/12 00:21:12;;;;;;;1.40;1.30;;;;;;;;;;4907392;29;20671;-85
2024/02/12 00:24:17;;;;;;;1.57;1.43;;;;;;;;;;4907706;29;20190;-86
2024/02/12 00:27:21;;;;;;;2.43;1.37;;;;;;;;;;4907288;29;20190;-86
2024/02/12 00:30:25;;;;;;;2.30;1.20;;;;;;;;;;4905892;29;20559;-85
2024/02/12 00:33:30;;;;;;;1.70;1.13;;;;;;;;;;4904516;29;20189;-85
2024/02/12 00:36:34;;;;;;;1.93;1.37;;;;;;;;;;4903360;29;20189;-86
2024/02/12 00:39:42;;;;;;;2.23;1.27;;;;;;;;;;4904677;29;20229;-85
2024/02/12 00:42:48;;;;;;;2.30;1.17;;;;;;;;;;4903132;29;20631;-85
2024/02/12 00:45:52;;;;;;;1.10;1.00;;;;;;;;;;4903019;29;20186;-85
2024/02/12 00:48:59;;;;;;;2.20;1.50;;;;;;;;;;4901367;29;20225;-85
2024/02/12 00:52:04;;;;;;;1.63;1.10;;;;;;;;;;4903472;29;20186;-86
2024/02/12 00:55:15;;;;;;;2.27;1.30;;;;;;;;;;4891892;29;20185;-85
2024/02/12 00:58:30;;;;;;;2.60;1.40;;;;;;;;;;4902020;29;20230;-85
2024/02/12 01:01:35;;;;;;;2.40;1.13;;;;;;;;;;4901810;29;20182;-85
2024/02/12 01:04:39;;;;;;;3.03;1.40;;;;;;;;;;4911213;29;20185;-85
2024/02/12 01:07:44;;;;;;;1.63;1.20;;;;;;;;;;4889965;29;20569;-85
2024/02/12 01:10:47;;;;;;;1.33;1.10;;;;;;;;;;4900783;29;20190;-85
2024/02/12 01:13:52;;;;;;;1.83;1.27;;;;;;;;;;4901276;29;20193;-85
2024/02/12 01:16:56;;;;;;;1.83;1.03;;;;;;;;;;4890045;29;20185;-85
2024/02/12 01:20:01;;;;;;;1.67;1.10;;;;;;;;;;4899680;29;20228;-85
2024/02/12 01:23:06;;;;;;;1.43;0.93;;;;;;;;;;4889331;29;20191;-85
2024/02/12 01:26:13;;;;;;;2.00;1.00;;;;;;;;;;4899762;29;20186;-85
2024/02/12 01:29:17;;;;;;;1.53;1.20;;;;;;;;;;4900108;29;20602;-85
2024/02/12 01:32:22;;;;;;;2.10;0.90;;;;;;;;;;4900803;29;20182;-85
2024/02/12 01:35:27;;;;;;;1.87;1.00;;;;;;;;;;4900624;29;20216;-85
2024/02/12 01:38:33;;;;;;;0.87;0.80;;;;;;;;;;4899709;29;20229;-85
2024/02/12 01:41:37;;;;;;;0.97;0.90;;;;;;;;;;4889406;29;20189;-85
2024/02/12 01:44:57;;;;;;;1.90;1.00;;;;;;;;;;4899541;29;20659;-85
2024/02/12 01:48:02;;;;;;;2.50;1.00;;;;;;;;;;4900522;29;20218;-86
2024/02/12 01:51:09;;;;;;;1.00;0.90;;;;;;;;;;4879346;29;20190;-86
2024/02/12 01:54:15;;;;;;;1.60;1.10;;;;;;;;;;4901618;29;20186;-86
2024/02/12 01:57:19;;;;;;;1.83;0.90;;;;;;;;;;4901703;29;20185;-85
2024/02/12 02:00:26;;;;;;;1.00;0.90;;;;;;;;;;4912590;29;20213;-85
2024/02/12 02:03:46;;;;;;;1.80;0.90;;;;;;;;;;4904283;29;20178;-85
2024/02/12 02:06:53;;;;;;;0.97;0.80;;;;;;;;;;4903035;29;20186;-85
2024/02/12 02:09:57;;;;;;;0.83;0.70;;;;;;;;;;4903237;29;20186;-85
2024/02/12 02:13:03;;;;;;;0.90;0.80;;;;;;;;;;4902107;29;20190;-85
2024/02/12 02:16:27;;;;;;;1.30;0.90;;;;;;;;;;4903404;29;20186;-85
2024/02/12 02:19:31;;;;;;;2.10;0.80;;;;;;;;;;4902745;29;20229;-85
2024/02/12 02:22:35;;;;;;;1.57;1.03;;;;;;;;;;4904347;29;20642;-85
2024/02/12 02:25:40;;;;;;;1.63;0.90;;;;;;;;;;4903498;29;20186;-85
2024/02/12 02:28:44;;;;;;;1.13;0.90;;;;;;;;;;4901862;29;20694;-85
2024/02/12 02:31:48;;;;;;;1.20;0.90;;;;;;;;;;4902295;29;20181;-85
2024/02/12 02:34:55;;;;;;;1.57;1.10;;;;;;;;;;4902713;29;20197;-85
2024/02/12 02:38:01;;;;;;;1.23;0.83;;;;;;;;;;4900990;29;20226;-85
2024/02/12 02:41:05;;;;;;;1.80;1.00;;;;;;;;;;4900941;29;20182;-85
2024/02/12 02:44:10;;;;;;;1.57;0.90;;;;;;;;;;4901907;29;20194;-85
2024/02/12 02:47:14;;;;;;;0.70;0.70;;;;;;;;;;4901541;29;20647;-85
2024/02/12 02:50:18;;;;;;;2.40;0.80;;;;;;;;;;4900619;29;20185;-85
2024/02/12 02:53:22;;;;;;;0.90;0.80;;;;;;;;;;4901761;29;20186;-85
2024/02/12 02:56:27;;;;;;;1.07;0.87;;;;;;;;;;4890964;29;20186;-85
2024/02/12 02:59:31;;;;;;;1.20;0.90;;;;;;;;;;4900826;29;20567;-86
2024/02/12 03:02:35;;;;;;;1.00;0.70;;;;;;;;;;4900383;29;20185;-85
2024/02/12 03:05:39;;;;;;;1.63;1.00;;;;;;;;;;4900606;29;20182;-82
2024/02/12 03:08:43;;;;;;;0.80;0.73;;;;;;;;;;4900100;29;20611;-82
2024/02/12 03:11:51;;;;;;;1.40;0.80;;;;;;;;;;4900436;29;20194;-82
2024/02/12 03:14:55;;;;;;;2.80;1.10;;;;;;;;;;4901515;29;20189;-82
2024/02/12 03:18:02;;;;;;;1.10;0.80;;;;;;;;;;4900176;29;20229;-82
2024/02/12 03:21:09;;;;;;;1.37;0.80;;;;;;;;;;4899098;29;20205;-82
2024/02/12 03:24:13;;;;;;;0.90;0.73;;;;;;;;;;4899377;29;20189;-82
2024/02/12 03:27:17;;;;;;;1.10;0.87;;;;;;;;;;4899228;29;20201;-82
2024/02/12 03:30:24;;;;;;;1.03;0.70;;;;;;;;;;4900209;29;20178;-82
2024/02/12 03:33:28;;;;;;;1.20;0.90;;;;;;;;;;4899777;29;20189;-82
2024/02/12 03:36:32;;;;;;;1.80;0.90;;;;;;;;;;4899993;29;20185;-82
2024/02/12 03:39:37;;;;;;;1.17;0.90;;;;;;;;;;4910200;29;20226;-82
2024/02/12 03:42:41;;;;;;;1.10;0.90;;;;;;;;;;4889048;29;20186;-82
2024/02/12 03:45:46;;;;;;;1.17;0.83;;;;;;;;;;4900469;29;20189;-82
2024/02/12 04:02:21;;;;;;;0.97;0.87;;;;;;;;;;4899893;29;20182;-82
2024/02/12 04:05:27;;;;;;;1.47;0.90;;;;;;;;;;4899057;29;20186;-82
2024/02/12 04:08:31;;;;;;;1.00;0.80;;;;;;;;;;4899054;29;20217;-82
2024/02/12 04:11:42;;;;;;;1.17;0.80;;;;;;;;;;4900061;29;20185;-83
2024/02/12 04:14:47;;;;;;;2.23;0.80;;;;;;;;;;4899958;29;20178;-82
2024/02/12 04:17:51;;;;;;;1.00;0.70;;;;;;;;;;4899787;29;20221;-82
2024/02/12 04:20:55;;;;;;;2.40;0.70;;;;;;;;;;4898404;29;20232;-82
2024/02/12 04:24:04;;;;;;;3.67;1.00;;;;;;;;;;4898546;29;20194;-82
2024/02/12 04:27:10;;;;;;;2.10;0.80;;;;;;;;;;4898680;29;20787;-82
2024/02/12 04:30:14;;;;;;;1.10;0.93;;;;;;;;;;4899959;29;20535;-82
2024/02/12 04:33:20;;;;;;;0.83;0.77;;;;;;;;;;4900355;29;20190;-82
2024/02/12 04:36:24;;;;;;;1.07;0.70;;;;;;;;;;4900544;29;20190;-82
2024/02/12 04:39:28;;;;;;;1.40;0.83;;;;;;;;;;4900243;29;20237;-82
2024/02/12 04:42:32;;;;;;;1.43;0.80;;;;;;;;;;4899263;29;20631;-82
2024/02/12 04:45:36;;;;;;;1.33;0.73;;;;;;;;;;4899251;29;20181;-82
2024/02/12 04:48:40;;;;;;;1.00;0.73;;;;;;;;;;4899992;29;20222;-82
2024/02/12 04:51:45;;;;;;;1.53;0.90;;;;;;;;;;4899683;29;20190;-82
2024/02/12 04:54:49;;;;;;;1.60;0.93;;;;;;;;;;4899350;29;20185;-82
2024/02/12 04:57:53;;;;;;;1.50;0.83;;;;;;;;;;4899016;29;20233;-82
2024/02/12 05:00:58;;;;;;;1.10;0.90;;;;;;;;;;4899324;29;20672;-82
2024/02/12 05:04:02;;;;;;;0.70;0.50;;;;;;;;;;4909650;29;20185;-82
2024/02/12 05:07:06;;;;;;;0.80;0.80;;;;;;;;;;4898501;29;20542;-82
2024/02/12 05:10:10;;;;;;;1.33;0.73;;;;;;;;;;4909516;29;20193;-82
2024/02/12 05:13:15;;;;;;;0.87;0.73;;;;;;;;;;4898581;29;20194;-83
2024/02/12 05:16:21;;;;;;;1.03;0.80;;;;;;;;;;4898695;29;20197;-82
2024/02/12 05:22:49;;;;;;;0.63;0.60;;;;;;;;;;4898589;29;20186;-82
2024/02/12 05:25:54;;;;;;;1.30;0.90;;;;;;;;;;4897349;29;20178;-82
2024/02/12 05:28:59;;;;;;;0.70;0.60;;;;;;;;;;4898367;29;20221;-82
2024/02/12 05:32:03;;;;;;;1.00;0.90;;;;;;;;;;4899012;29;20524;-82
2024/02/12 05:35:09;;;;;;;1.10;0.90;;;;;;;;;;4897482;29;20185;-82
2024/02/12 05:38:13;;;;;;;1.70;1.43;;;;;;;;;;4897426;29;20217;-83
2024/02/12 05:41:17;;;;;;;1.97;1.00;;;;;;;;;;4897748;29;20210;-82
2024/02/12 05:44:22;;;;;;;1.40;1.00;;;;;;;;;;4897745;29;20181;-82
2024/02/12 05:47:26;;;;;;;1.27;0.90;;;;;;;;;;4887053;29;20181;-82
2024/02/12 05:50:30;;;;;;;1.00;0.60;;;;;;;;;;4908480;29;20185;-81
2024/02/12 05:53:35;;;;;;;0.90;0.73;;;;;;;;;;4898566;29;20643;-82
2024/02/12 05:56:40;;;;;;;1.20;0.80;;;;;;;;;;4898397;29;20185;-81
2024/02/12 05:59:44;;;;;;;1.10;0.80;;;;;;;;;;4897484;29;20233;-82
2024/02/12 06:02:48;;;;;;;1.23;0.73;;;;;;;;;;4877032;29;20193;-82
2024/02/12 06:05:52;;;;;;;3.30;1.00;;;;;;;;;;4886828;29;20183;-82
2024/02/12 06:08:57;;;;;;;0.97;0.80;;;;;;;;;;4898390;29;20228;-82
2024/02/12 06:12:02;;;;;;;1.33;0.83;;;;;;;;;;4898364;29;20182;-82
2024/02/12 06:15:06;;;;;;;1.10;0.80;;;;;;;;;;4897967;29;20190;-82
2024/02/12 06:18:13;;;;;;;0.70;0.70;;;;;;;;;;4896834;29;20221;-82
2024/02/12 06:21:17;;;;;;;0.80;0.63;;;;;;;;;;4897794;29;20233;-82
2024/02/12 06:24:21;;;;;;;0.80;0.53;;;;;;;;;;4897561;29;20193;-82
2024/02/12 06:27:27;;;;;;;0.93;0.70;;;;;;;;;;4897321;29;20182;-82
2024/02/12 06:30:32;;;;;;;1.00;0.50;;;;;;;;;;4897070;29;20181;-81
2024/02/12 06:33:36;;;;;;;0.77;0.60;;;;;;;;;;4898408;29;20190;-82
2024/02/12 06:36:40;;;;;;;2.83;0.80;;;;;;;;;;4897039;29;20186;-81
2024/02/12 06:39:44;;;;;;;0.60;0.60;;;;;;;;;;4885786;29;20226;-81
2024/02/12 06:42:49;;;;;;;0.90;0.70;;;;;;;;;;4898063;29;20190;-82
2024/02/12 06:45:53;;;;;;;0.90;0.70;;;;;;;;;;4897145;29;20186;-82
2024/02/12 06:48:58;;;;;;;2.00;0.60;;;;;;;;;;4899657;29;20591;-81
2024/02/12 06:52:02;;;;;;;1.00;0.60;;;;;;;;;;4900829;29;20603;-82
2024/02/12 06:55:10;;;;;;;4.10;2.50;;;;;;;;;;4900183;29;20185;-81
2024/02/12 06:58:13;;;;;;;3.00;2.07;;;;;;;;;;4900243;29;20226;-82
2024/02/12 07:01:17;;;;;;;2.17;0.90;;;;;;;;;;4899506;29;20210;-82
2024/02/12 07:04:22;;;;;;;1.17;0.80;;;;;;;;;;4900367;29;20190;-81
2024/02/12 07:07:26;;;;;;;2.27;1.97;;;;;;;;;;4899392;29;20178;-84
2024/02/12 07:10:30;;;;;;;2.03;1.70;;;;;;;;;;4888634;29;20182;-84
2024/02/12 07:13:34;;;;;;;9.03;7.53;;;;;;;;;;4900687;29;20190;-83
2024/02/12 07:16:40;;;;;;;8.33;5.57;;;;;;;;;;4901227;29;20647;-85
2024/02/12 07:19:51;;;;;;;3.17;2.77;;;;;;;;;;4900272;29;20718;-84
2024/02/12 07:22:56;;;;;;;2.13;1.93;;;;;;;;;;4888902;29;20567;-84
2024/02/12 07:26:01;;;;;;;1.70;1.57;;;;;;;;;;4889086;29;20194;-84
2024/02/12 07:29:08;;;;;;;2.20;2.00;;;;;;;;;;4898454;29;20222;-85
2024/02/12 07:32:19;;;;;;;7.60;4.53;;;;;;;;;;4898652;29;20186;-84
2024/02/12 07:35:23;;;;;;;3.73;3.33;;;;;;;;;;4888424;29;20182;-84
2024/02/12 07:38:28;;;;;;;1.20;1.10;;;;;;;;;;4899096;29;20706;-84
2024/02/12 07:41:32;;;;;;;3.17;2.37;;;;;;;;;;4888094;29;20205;-85
2024/02/12 07:44:36;;;;;;;2.13;0.93;;;;;;;;;;4900570;29;20194;-84
2024/02/12 07:47:43;;;;;;;1.23;0.70;;;;;;;;;;4898128;29;20194;-83
2024/02/12 07:50:51;;;;;;;1.77;1.03;;;;;;;;;;4887525;29;20182;-85
2024/02/12 07:53:55;;;;;;;1.60;1.23;;;;;;;;;;4898565;29;20555;-85
2024/02/12 07:56:59;;;;;;;1.50;1.20;;;;;;;;;;4888043;29;20190;-85
2024/02/12 08:00:14;;;;;;;2.10;1.00;;;;;;;;;;4899648;29;20186;-85
2024/02/12 08:03:23;;;;;;;0.63;0.60;;;;;;;;;;4887811;29;20182;-85
2024/02/12 08:06:27;;;;;;;2.30;1.23;;;;;;;;;;4887494;29;20183;-85
2024/02/12 08:09:35;;;;;;;3.10;1.10;;;;;;;;;;4898048;29;20217;-85
2024/02/12 08:12:43;;;;;;;1.20;0.80;;;;;;;;;;4898934;29;20178;-85
2024/02/12 08:15:51;;;;;;;1.40;1.10;;;;;;;;;;4898286;29;20190;-85
2024/02/12 08:19:19;;;;;;;1.43;1.07;;;;;;;;;;4888992;29;20230;-85
2024/02/12 08:22:45;;;;;;;3.30;1.07;;;;;;;;;;4887498;29;20209;-85
2024/02/12 08:25:52;;;;;;;1.63;0.87;;;;;;;;;;4886901;29;20177;-84
2024/02/12 08:28:58;;;;;;;1.47;0.70;;;;;;;;;;4898572;29;20217;-85
2024/02/12 08:32:12;;;;;;;1.33;0.80;;;;;;;;;;4897989;29;20181;-85
2024/02/12 08:35:17;;;;;;;2.13;1.00;;;;;;;;;;4897710;29;20186;-84
2024/02/12 08:38:30;;;;;;;2.40;0.90;;;;;;;;;;4896808;29;20225;-85
2024/02/12 08:45:56;;;;;;;3.50;1.00;;;;;;;;;;4903587;29;20185;-86
2024/02/12 08:49:33;;;;;;;1.83;1.40;;;;;;;;;;4897750;28;20229;-84
2024/02/12 08:52:37;;;;;;;3.43;1.13;;;;;;;;;;4898516;29;20177;-83
2024/02/12 08:55:41;;;;;;;1.70;0.80;;;;;;;;;;4908889;29;20189;-84
2024/02/12 08:58:45;;;;;;;2.10;0.87;;;;;;;;;;4886924;29;20225;-83
2024/02/12 09:01:51;;;;;;;1.03;0.90;;;;;;;;;;4897584;29;20717;-83
2024/02/12 09:04:56;;;;;;;1.83;0.87;;;;;;;;;;4898570;29;20185;-83
2024/02/12 09:08:00;;;;;;;2.40;0.77;;;;;;;;;;4897578;29;20221;-83
2024/02/12 09:11:05;;;;;;;2.90;1.87;;;;;;;;;;4874819;29;20631;-83
2024/02/12 09:14:09;;;;;;;1.73;1.00;;;;;;;;;;4897066;29;20643;-83
2024/02/12 09:17:18;;;;;;;1.43;1.00;;;;;;;;;;4897038;29;20182;-83
2024/02/12 09:20:24;;;;;;;2.00;1.30;;;;;;;;;;4896449;29;20678;-83
2024/02/12 09:23:29;;;;;;;1.57;1.00;;;;;;;;;;4906924;29;20189;-83
2024/02/12 09:26:33;;;;;;;2.60;1.40;;;;;;;;;;4896148;29;20642;-83
2024/02/12 09:29:37;;;;;;;2.63;1.50;;;;;;;;;;4897432;29;20220;-82
2024/02/12 09:32:43;;;;;;;3.20;1.60;;;;;;;;;;4896463;29;20641;-83
2024/02/12 09:35:47;;;;;;;3.30;2.00;;;;;;;;;;4885342;29;20181;-83
2024/02/12 09:38:52;;;;;;;3.23;1.50;;;;;;;;;;4896877;29;20683;-83
2024/02/12 09:41:58;;;;;;;4.73;1.80;;;;;;;;;;4885108;29;20210;-83
2024/02/12 09:45:07;;;;;;;3.20;1.50;;;;;;;;;;4895939;29;20190;-83
2024/02/12 09:48:12;;;;;;;3.10;1.40;;;;;;;;;;4896438;29;20217;-82
2024/02/12 09:51:17;;;;;;;3.57;1.70;;;;;;;;;;4896821;29;20186;-82
2024/02/12 09:54:22;;;;;;;1.73;1.40;;;;;;;;;;4896000;29;20551;-82
2024/02/12 09:57:26;;;;;;;2.90;1.83;;;;;;;;;;4885010;29;20190;-82
2024/02/12 10:00:35;;;;;;;2.00;1.50;;;;;;;;;;4896485;29;20185;-82
2024/02/12 10:03:51;;;;;;;3.23;1.80;;;;;;;;;;4896349;29;20186;-85
2024/02/12 10:07:15;;;;;;;3.03;1.60;;;;;;;;;;4903671;29;20190;-83
2024/02/12 10:10:39;;;;;;;1.90;1.50;;;;;;;;;;4896061;29;20187;-82
2024/02/12 10:14:05;;;;;;;3.73;1.73;;;;;;;;;;4887703;29;20186;-82
2024/02/12 10:17:29;;;;;;;3.60;1.80;;;;;;;;;;4887534;29;20190;-83
2024/02/12 10:20:53;;;;;;;2.40;1.90;;;;;;;;;;4904849;29;20556;-83
2024/02/12 10:24:27;;;;;;;3.83;2.17;;;;;;;;;;4900931;29;20181;-83
2024/02/12 10:27:52;;;;;;;4.60;2.10;;;;;;;;;;4898956;29;20225;-84
2024/02/12 10:31:18;;;;;;;4.73;2.13;;;;;;;;;;4900223;29;20182;-84
2024/02/12 10:34:45;;;;;;;2.97;2.27;;;;;;;;;;4891058;29;20177;-84
2024/02/12 10:38:11;;;;;;;2.70;1.93;;;;;;;;;;4901164;29;20221;-84
2024/02/12 10:41:46;;;;;;;2.83;1.83;;;;;;;;;;4900191;29;20560;-84
2024/02/12 10:45:10;;;;;;;2.53;2.10;;;;;;;;;;4899905;29;20189;-84
2024/02/12 10:48:46;;;;;;;3.90;2.40;;;;;;;;;;4900255;29;20217;-83
2024/02/12 10:52:17;;;;;;;4.10;2.00;;;;;;;;;;4883444;29;20174;-84
2024/02/12 10:55:49;;;;;;;4.33;1.90;;;;;;;;;;4900127;29;20181;-84
2024/02/12 10:59:08;;;;;;;3.17;1.80;;;;;;;;;;4899809;29;20225;-84
2024/02/12 11:02:13;;;;;;;2.73;1.90;;;;;;;;;;4899845;29;20218;-83
2024/02/12 11:05:17;;;;;;;5.67;2.30;;;;;;;;;;4888947;29;20181;-84
2024/02/12 11:08:42;;;;;;;3.30;2.10;;;;;;;;;;4898761;29;20217;-83
2024/02/12 11:11:47;;;;;;;3.40;2.07;;;;;;;;;;4899110;29;20640;-83
2024/02/12 11:14:51;;;;;;;4.37;2.40;;;;;;;;;;4900435;29;20190;-81
2024/02/12 11:17:55;;;;;;;3.53;2.20;;;;;;;;;;4899289;29;20229;-83
2024/02/12 11:21:01;;;;;;;3.40;2.50;;;;;;;;;;4877579;29;20205;-84
2024/02/12 11:24:13;;;;;;;3.90;2.17;;;;;;;;;;4888120;29;20190;-83
2024/02/12 11:27:20;;;;;;;2.83;2.00;;;;;;;;;;4888239;29;20190;-83
2024/02/12 11:30:24;;;;;;;4.47;2.10;;;;;;;;;;4902089;29;20182;-84
2024/02/12 11:33:28;;;;;;;4.27;2.37;;;;;;;;;;4900342;29;20182;-84
2024/02/12 11:36:33;;;;;;;4.50;2.10;;;;;;;;;;4899697;29;20194;-84
2024/02/12 11:39:39;;;;;;;3.90;2.07;;;;;;;;;;4880592;29;20225;-84
2024/02/12 11:42:51;;;;;;;5.47;2.50;;;;;;;;;;4890213;29;20217;-84
2024/02/12 11:46:00;;;;;;;3.33;2.80;;;;;;;;;;4879856;29;20189;-84
2024/02/12 11:49:08;;;;;;;4.37;2.23;;;;;;;;;;4899450;29;20217;-83
2024/02/12 11:52:12;;;;;;;4.37;2.03;;;;;;;;;;4888267;29;20178;-83
2024/02/12 11:55:29;;;;;;;3.47;2.30;;;;;;;;;;4880284;29;20182;-80
2024/02/12 11:58:33;;;;;;;5.23;2.27;;;;;;;;;;4900185;29;20217;-78
2024/02/12 12:01:37;;;;;;;4.03;2.20;;;;;;;;;;4909327;29;20209;-82
2024/02/12 12:04:43;;;;;;;5.03;2.00;;;;;;;;;;4887802;29;20189;-81
2024/02/12 12:07:47;;;;;;;2.93;2.00;;;;;;;;;;4898124;29;20193;-82
2024/02/12 12:10:51;;;;;;;3.80;1.90;;;;;;;;;;4886922;29;20189;-82
2024/02/12 12:13:58;;;;;;;4.83;2.30;;;;;;;;;;4908663;29;20178;-82
2024/02/12 12:17:02;;;;;;;2.73;1.93;;;;;;;;;;4897579;29;20186;-83
2024/02/12 12:20:09;;;;;;;4.07;1.97;;;;;;;;;;4900699;29;20210;-82
2024/02/12 12:23:29;;;;;;;2.03;1.80;;;;;;;;;;4899915;29;20210;-81
2024/02/12 12:26:35;;;;;;;3.67;1.73;;;;;;;;;;4898237;29;20190;-82
2024/02/12 12:29:42;;;;;;;3.87;1.77;;;;;;;;;;4897933;29;20218;-83
2024/02/12 12:32:47;;;;;;;3.57;2.13;;;;;;;;;;4898888;29;20189;-83
2024/02/12 12:35:52;;;;;;;2.60;1.97;;;;;;;;;;4887083;29;20193;-82
2024/02/12 12:38:56;;;;;;;2.37;1.73;;;;;;;;;;4898037;29;20217;-82
2024/02/12 12:41:59;;;;;;;2.53;1.60;;;;;;;;;;4886528;29;20217;-82
2024/02/12 12:45:07;;;;;;;2.37;1.93;;;;;;;;;;4896699;29;20189;-82
2024/02/12 12:48:13;;;;;;;3.50;1.83;;;;;;;;;;4897559;29;20328;-83
2024/02/12 12:51:18;;;;;;;3.33;2.13;;;;;;;;;;4896904;29;20627;-83
2024/02/12 12:54:22;;;;;;;5.17;1.90;;;;;;;;;;4898170;29;20186;-82
2024/02/12 12:57:27;;;;;;;3.60;1.90;;;;;;;;;;4899839;29;20186;-82
2024/02/12 13:00:35;;;;;;;4.03;2.20;;;;;;;;;;4899014;29;20194;-83
2024/02/12 13:03:49;;;;;;;2.20;1.70;;;;;;;;;;4897239;29;20210;-82
2024/02/12 13:06:54;;;;;;;4.33;1.90;;;;;;;;;;4896466;29;20190;-82
2024/02/12 13:09:59;;;;;;;4.80;1.77;;;;;;;;;;4886142;29;20181;-83
2024/02/12 13:13:06;;;;;;;1.83;1.60;;;;;;;;;;4896618;29;20631;-83
2024/02/12 13:16:11;;;;;;;2.67;1.80;;;;;;;;;;4897576;29;20190;-83
2024/02/12 13:19:16;;;;;;;2.50;1.80;;;;;;;;;;4897388;29;20233;-82
2024/02/12 13:22:19;;;;;;;2.67;1.60;;;;;;;;;;4896612;29;20214;-83
2024/02/12 13:25:31;;;;;;;4.83;1.90;;;;;;;;;;4896495;29;20516;-82
2024/02/12 13:28:39;;;;;;;3.20;1.60;;;;;;;;;;4896566;29;20225;-83
2024/02/12 13:31:43;;;;;;;5.73;1.80;;;;;;;;;;4896865;29;20194;-83
2024/02/12 13:34:47;;;;;;;5.37;1.83;;;;;;;;;;4898276;29;20185;-82
2024/02/12 13:37:52;;;;;;;7.13;4.20;;;;;;;;;;4895716;29;20233;-82
2024/02/12 13:40:56;;;;;;;6.77;4.40;;;;;;;;;;4897018;29;20182;-82
2024/02/12 13:44:03;;;;;;;2.40;2.00;;;;;;;;;;4896695;29;20213;-82
2024/02/12 13:47:07;;;;;;;4.30;2.70;;;;;;;;;;4897431;29;20181;-83
2024/02/12 13:50:11;;;;;;;2.50;2.00;;;;;;;;;;4886321;29;20578;-83
2024/02/12 13:53:16;;;;;;;3.93;2.00;;;;;;;;;;4896193;29;20185;-83
2024/02/12 13:56:24;;;;;;;2.87;2.00;;;;;;;;;;4897941;29;20214;-83
2024/02/12 13:59:31;;;;;;;3.30;1.70;;;;;;;;;;4900470;29;20221;-82
2024/02/12 14:02:36;;;;;;;2.73;1.70;;;;;;;;;;4900245;29;20556;-82
2024/02/12 14:05:40;;;;;;;1.73;1.53;;;;;;;;;;4905166;29;20182;-83
2024/02/12 14:08:45;;;;;;;2.50;1.60;;;;;;;;;;4906338;29;20225;-83
2024/02/12 14:11:50;;;;;;;3.67;1.97;;;;;;;;;;4904331;29;20194;-83
2024/02/12 14:14:54;;;;;;;3.43;1.93;;;;;;;;;;4905159;29;20181;-83
2024/02/12 14:18:04;;;;;;;2.50;1.60;;;;;;;;;;4905321;29;20217;-83
2024/02/12 14:21:13;;;;;;;14.37;8.67;;;;;;;;;;4903507;29;20205;-83
2024/02/12 14:24:18;;;;;;;18.10;10.07;;;;;;;;;;4904342;29;20213;-83
2024/02/12 14:27:23;;;;;;;6.77;4.17;;;;;;;;;;4905515;29;20205;-82
2024/02/12 14:30:31;;;;;;;3.20;2.10;;;;;;;;;;4906171;29;20189;-82
2024/02/12 14:33:46;;;;;;;2.00;1.80;;;;;;;;;;4905659;29;20182;-82
2024/02/12 14:36:52;;;;;;;2.30;1.80;;;;;;;;;;4896238;29;20190;-83
2024/02/12 14:40:00;;;;;;;5.13;3.47;;;;;;;;;;4907765;29;20210;-84
2024/02/12 14:43:04;;;;;;;15.00;9.60;;;;;;;;;;4909267;29;20226;-82
2024/02/12 14:46:08;;;;;;;4.93;3.47;;;;;;;;;;4908059;29;20182;-82
2024/02/12 14:49:31;;;;;;;2.80;2.30;;;;;;;;;;4909548;29;20226;-83
2024/02/12 14:52:36;;;;;;;1.97;1.50;;;;;;;;;;4908677;29;20181;-83
2024/02/12 14:55:41;;;;;;;3.53;1.93;;;;;;;;;;4907553;29;20181;-83
2024/02/12 14:58:45;;;;;;;5.50;2.00;;;;;;;;;;4909081;29;20225;-83
2024/02/12 15:01:49;;;;;;;2.97;1.63;;;;;;;;;;4908615;29;20186;-82
2024/02/12 15:04:54;;;;;;;2.63;1.57;;;;;;;;;;4907346;29;20182;-86
2024/02/12 15:07:58;;;;;;;4.47;2.00;;;;;;;;;;4905558;29;20218;-86
2024/02/12 15:11:08;;;;;;;3.00;1.73;;;;;;;;;;4906969;29;20189;-86
2024/02/12 15:14:12;;;;;;;2.30;1.90;;;;;;;;;;4906137;29;20182;-86
2024/02/12 15:17:19;;;;;;;3.13;1.80;;;;;;;;;;4896067;29;20186;-86
2024/02/12 15:20:29;;;;;;;3.70;2.07;;;;;;;;;;4907006;29;20217;-86
2024/02/12 15:23:38;;;;;;;3.83;2.00;;;;;;;;;;4906113;29;20686;-86
2024/02/12 15:26:42;;;;;;;1.93;1.63;;;;;;;;;;4905886;29;20578;-82
2024/02/12 15:29:49;;;;;;;2.67;2.00;;;;;;;;;;4907271;29;20229;-86
2024/02/12 15:32:56;;;;;;;35.63;23.53;;;;;;;;;;4917621;29;20186;-86
2024/02/12 15:36:01;;;;;;;7.90;6.07;;;;;;;;;;4906629;29;20512;-86
2024/02/12 15:39:10;;;;;;;5.83;4.10;;;;;;;;;;4916205;29;20217;-85
2024/02/12 15:42:18;;;;;;;2.53;2.33;;;;;;;;;;4905253;29;20186;-86
2024/02/12 15:45:24;;;;;;;3.17;2.00;;;;;;;;;;4907413;29;20190;-86
2024/02/12 15:48:29;;;;;;;2.60;1.90;;;;;;;;;;4906371;29;20229;-86
2024/02/12 15:51:34;;;;;;;2.63;1.73;;;;;;;;;;4904750;29;20190;-86
2024/02/12 15:54:42;;;;;;;3.23;1.80;;;;;;;;;;4902721;29;20549;-86
2024/02/12 15:57:48;;;;;;;4.30;1.80;;;;;;;;;;4901882;29;20190;-86
2024/02/12 16:00:52;;;;;;;3.47;1.70;;;;;;;;;;4902261;29;20190;-85
2024/02/12 16:03:56;;;;;;;2.90;1.50;;;;;;;;;;4902075;29;20213;-86
2024/02/12 16:07:01;;;;;;;2.47;1.70;;;;;;;;;;4903220;29;20189;-85
2024/02/12 16:10:07;;;;;;;2.73;1.70;;;;;;;;;;4913154;29;20189;-86
2024/02/12 16:13:12;;;;;;;3.27;1.87;;;;;;;;;;4891832;29;20182;-85
2024/02/12 16:16:18;;;;;;;2.47;1.60;;;;;;;;;;4902458;29;20189;-87
2024/02/12 16:19:24;;;;;;;3.13;1.87;;;;;;;;;;4904136;29;20228;-87
2024/02/12 16:22:28;;;;;;;2.67;1.80;;;;;;;;;;4902249;29;20186;-86
2024/02/12 16:25:33;;;;;;;3.30;1.83;;;;;;;;;;4904719;28;20186;-85
2024/02/12 16:28:37;;;;;;;3.47;1.83;;;;;;;;;;4901017;29;20225;-86
2024/02/12 16:31:43;;;;;;;1.97;1.50;;;;;;;;;;4890795;29;20190;-87
2024/02/12 16:34:48;;;;;;;3.33;1.67;;;;;;;;;;4902300;29;20186;-86
2024/02/12 16:37:52;;;;;;;2.10;1.40;;;;;;;;;;4891334;29;20227;-86
2024/02/12 16:40:57;;;;;;;2.70;1.97;;;;;;;;;;4903812;29;20181;-85
2024/02/12 16:44:02;;;;;;;2.97;1.90;;;;;;;;;;4903513;29;20214;-86
2024/02/12 16:47:07;;;;;;;2.37;1.60;;;;;;;;;;4902513;29;20181;-86
2024/02/12 16:50:11;;;;;;;2.83;1.80;;;;;;;;;;4901991;29;20189;-86
2024/02/12 16:53:16;;;;;;;3.80;2.07;;;;;;;;;;4903209;29;20198;-86
2024/02/12 16:56:20;;;;;;;13.37;8.23;;;;;;;;;;4910121;29;20608;-85
2024/02/12 16:59:26;;;;;;;11.47;7.87;;;;;;;;;;4900976;29;20229;-85
2024/02/12 17:02:30;;;;;;;15.27;8.17;;;;;;;;;;4901849;29;20627;-86
2024/02/12 17:05:34;;;;;;;44.57;22.43;;;;;;;;;;4899769;29;20194;-88
2024/02/12 17:08:43;;;;;;;12.17;6.57;;;;;;;;;;4896849;29;20221;-86
2024/02/12 17:11:47;;;;;;;7.67;4.87;;;;;;;;;;4896650;29;20182;-86
2024/02/12 17:14:53;;;;;;;13.20;6.47;;;;;;;;;;4898213;29;20574;-86
2024/02/12 17:17:57;;;;;;;9.30;4.60;;;;;;;;;;4897892;29;20221;-86
2024/02/12 17:21:02;;;;;;;4.60;3.23;;;;;;;;;;4896038;29;20217;-86
2024/02/12 17:24:08;;;;;;;4.63;2.80;;;;;;;;;;4887305;29;20213;-86
2024/02/12 17:27:13;;;;;;;3.50;2.70;;;;;;;;;;4897657;29;20190;-86
2024/02/12 17:30:18;;;;;;;4.77;2.50;;;;;;;;;;4897326;29;20186;-86
2024/02/12 17:33:42;;;;;;;57.60;27.80;;;;;;;;;;4896933;29;20178;-87
2024/02/12 17:36:46;;;;;;;42.27;22.23;;;;;;;;;;4897093;29;20189;-86
2024/02/12 17:39:51;;;;;;;9.10;5.03;;;;;;;;;;4897179;29;20217;-86
2024/02/12 17:42:56;;;;;;;10.13;5.23;;;;;;;;;;4896670;29;20193;-87
2024/02/12 17:46:00;;;;;;;15.50;10.90;;;;;;;;;;4895314;29;20186;-87
2024/02/12 17:49:04;;;;;;;9.17;6.27;;;;;;;;;;4896790;29;20228;-86
2024/02/12 17:52:08;;;;;;;6.07;3.67;;;;;;;;;;4875233;29;20186;-82
2024/02/12 17:55:13;;;;;;;3.23;2.07;;;;;;;;;;4896421;29;20182;-82
2024/02/12 17:58:17;;;;;;;2.53;2.07;;;;;;;;;;4885451;29;20225;-81
2024/02/12 18:01:21;;;;;;;4.87;2.30;;;;;;;;;;4896723;29;20185;-82
2024/02/12 18:04:25;;;;;;;6.30;2.60;;;;;;;;;;4895528;29;20221;-82
2024/02/12 18:07:31;;;;;;;4.07;2.63;;;;;;;;;;4895870;29;20185;-82
2024/02/12 18:10:40;;;;;;;3.13;2.13;;;;;;;;;;4895759;29;20192;-82
2024/02/12 18:13:45;;;;;;;3.10;1.97;;;;;;;;;;4895273;29;20186;-82
2024/02/12 18:16:49;;;;;;;4.07;1.97;;;;;;;;;;4884582;29;20186;-82
2024/02/12 18:19:55;;;;;;;3.47;2.30;;;;;;;;;;4874533;29;20229;-82
2024/02/12 18:23:00;;;;;;;3.00;1.90;;;;;;;;;;4895316;29;20186;-82
2024/02/12 18:26:08;;;;;;;2.77;1.63;;;;;;;;;;4896917;29;20174;-82
2024/02/12 18:29:12;;;;;;;3.03;1.73;;;;;;;;;;4897096;29;20225;-83
2024/02/12 18:32:16;;;;;;;4.00;2.93;;;;;;;;;;4896401;29;20186;-83
2024/02/12 18:35:22;;;;;;;5.27;3.27;;;;;;;;;;4896074;29;20186;-83
2024/02/12 18:38:26;;;;;;;3.53;2.40;;;;;;;;;;4874289;29;20222;-82
2024/02/12 18:41:31;;;;;;;3.70;1.90;;;;;;;;;;4906005;29;20185;-83
2024/02/12 18:44:35;;;;;;;2.97;1.97;;;;;;;;;;4876862;29;20217;-82
2024/02/12 18:47:40;;;;;;;2.93;1.87;;;;;;;;;;4909229;29;20185;-82
2024/02/12 18:50:45;;;;;;;2.63;1.83;;;;;;;;;;4898784;29;20182;-82
2024/02/12 18:53:49;;;;;;;4.10;2.43;;;;;;;;;;4898624;29;20178;-82
2024/02/12 18:56:54;;;;;;;3.40;2.23;;;;;;;;;;4898150;29;20181;-82
2024/02/12 18:59:58;;;;;;;4.17;2.40;;;;;;;;;;4899043;29;20193;-83
2024/02/12 19:03:06;;;;;;;3.60;1.80;;;;;;;;;;4898275;29;20635;-82